FDX104 KLAX-KDEN
Flight info
| Callsign | FDX104 |
|---|---|
| Flight time | 1h 40m |
| Altitude | 35000 |
| Route | ORCKA5 LAS J146 DICEE BUMMP SSKII4 |
| Aircraft | B77L/H-SDE1E2E3FGHIJ2J3J4J5M1RWXY/LB1D1 |
Departure
| Time | 2026-04-23 21:50 |
|---|---|
| Airport | Los Angeles International Airport (KLAX) |
Arrival
| Time | 2026-04-23 23:30 |
|---|---|
| Airport | Denver International Airport (KDEN) |
| Time | Latitude | Longitude | Altitude | Speed | Heading |
|---|---|---|---|---|---|
| 2026-04-23 21:23 | 33.93404 | -118.38838 | 130 ft | 0 kts | 173° |
| 2026-04-23 21:41 | 33.93407 | -118.38838 | 130 ft | 2 kts | 173° |
| 2026-04-23 21:41 | 33.93432 | -118.38842 | 125 ft | 4 kts | 167° |
| 2026-04-23 21:41 | 33.93455 | -118.38854 | 125 ft | 4 kts | 126° |
| 2026-04-23 21:42 | 33.93463 | -118.38882 | 125 ft | 4 kts | 85° |
| 2026-04-23 21:42 | 33.93462 | -118.38891 | 125 ft | 1 kts | 82° |
| 2026-04-23 21:47 | 33.93463 | -118.38885 | 125 ft | 2 kts | 83° |
| 2026-04-23 21:47 | 33.93472 | -118.38869 | 125 ft | 3 kts | 46° |
| 2026-04-23 21:47 | 33.93526 | -118.38853 | 127 ft | 13 kts | 10° |
| 2026-04-23 21:47 | 33.93563 | -118.38761 | 126 ft | 13 kts | 82° |
| 2026-04-23 21:48 | 33.93575 | -118.38651 | 127 ft | 13 kts | 83° |
| 2026-04-23 21:48 | 33.93587 | -118.38540 | 130 ft | 13 kts | 83° |
| 2026-04-23 21:48 | 33.93598 | -118.38430 | 127 ft | 13 kts | 83° |
| 2026-04-23 21:48 | 33.93610 | -118.38321 | 126 ft | 13 kts | 80° |
| 2026-04-23 21:49 | 33.93685 | -118.38282 | 127 ft | 13 kts | 354° |
| 2026-04-23 21:49 | 33.93729 | -118.38357 | 126 ft | 13 kts | 263° |
| 2026-04-23 21:49 | 33.93710 | -118.38537 | 126 ft | 38 kts | 262° |
| 2026-04-23 21:49 | 33.93642 | -118.39132 | 129 ft | 104 kts | 263° |
| 2026-04-23 21:50 | 33.93525 | -118.40227 | 128 ft | 157 kts | 264° |
| 2026-04-23 21:50 | 33.93407 | -118.41655 | 389 ft | 176 kts | 262° |
| 2026-04-23 21:50 | 33.93254 | -118.43144 | 830 ft | 188 kts | 260° |
| 2026-04-23 21:50 | 33.93070 | -118.44727 | 1498 ft | 187 kts | 262° |
| 2026-04-23 21:51 | 33.92877 | -118.46264 | 2184 ft | 190 kts | 255° |
| 2026-04-23 21:51 | 33.92401 | -118.47865 | 2362 ft | 215 kts | 248° |
| 2026-04-23 21:51 | 33.91792 | -118.49637 | 2535 ft | 244 kts | 247° |
| 2026-04-23 21:51 | 33.91094 | -118.51597 | 2962 ft | 261 kts | 246° |
| 2026-04-23 21:52 | 33.90366 | -118.53620 | 3557 ft | 271 kts | 246° |
| 2026-04-23 21:52 | 33.89610 | -118.55741 | 4285 ft | 275 kts | 247° |
| 2026-04-23 21:52 | 33.88858 | -118.57883 | 5076 ft | 279 kts | 248° |
| 2026-04-23 21:52 | 33.88134 | -118.60018 | 5867 ft | 278 kts | 248° |
| 2026-04-23 21:53 | 33.87035 | -118.61955 | 6421 ft | 286 kts | 219° |
| 2026-04-23 21:53 | 33.85213 | -118.62883 | 7139 ft | 287 kts | 184° |
| 2026-04-23 21:53 | 33.83282 | -118.62520 | 7882 ft | 290 kts | 157° |
| 2026-04-23 21:53 | 33.81606 | -118.61129 | 8468 ft | 299 kts | 133° |
| 2026-04-23 21:54 | 33.80796 | -118.59770 | 8868 ft | 304 kts | 116° |
| 2026-04-23 21:54 | 33.80350 | -118.56467 | 9727 ft | 307 kts | 76° |
| 2026-04-23 21:54 | 33.81237 | -118.54156 | 10283 ft | 307 kts | 46° |
| 2026-04-23 21:54 | 33.82292 | -118.52989 | 10441 ft | 314 kts | 32° |
| 2026-04-23 21:55 | 33.84812 | -118.50966 | 10673 ft | 344 kts | 31° |
| 2026-04-23 21:55 | 33.86860 | -118.49267 | 10848 ft | 369 kts | 32° |
| 2026-04-23 21:55 | 33.88286 | -118.48031 | 11160 ft | 378 kts | 33° |
| 2026-04-23 21:55 | 33.90427 | -118.46135 | 11796 ft | 388 kts | 34° |
| 2026-04-23 21:56 | 33.92485 | -118.43976 | 12561 ft | 398 kts | 42° |
| 2026-04-23 21:56 | 33.94357 | -118.41459 | 13422 ft | 406 kts | 48° |
| 2026-04-23 21:56 | 33.95991 | -118.38681 | 14184 ft | 414 kts | 53° |
| 2026-04-23 21:56 | 33.97604 | -118.35749 | 14902 ft | 420 kts | 53° |
| 2026-04-23 21:57 | 33.99219 | -118.32846 | 15667 ft | 424 kts | 53° |
| 2026-04-23 21:57 | 34.00893 | -118.29875 | 16410 ft | 429 kts | 52° |
| 2026-04-23 21:57 | 34.02603 | -118.26859 | 17099 ft | 435 kts | 52° |
| 2026-04-23 21:57 | 34.04311 | -118.23850 | 17797 ft | 441 kts | 52° |
| 2026-04-23 21:58 | 34.06059 | -118.20770 | 18488 ft | 446 kts | 52° |
| 2026-04-23 21:58 | 34.07802 | -118.17689 | 19092 ft | 451 kts | 52° |
| 2026-04-23 21:58 | 34.09579 | -118.14546 | 19731 ft | 455 kts | 52° |
| 2026-04-23 21:58 | 34.11378 | -118.11363 | 20359 ft | 459 kts | 52° |
| 2026-04-23 21:59 | 34.13183 | -118.08165 | 20987 ft | 462 kts | 52° |
| 2026-04-23 21:59 | 34.15003 | -118.04938 | 21594 ft | 467 kts | 52° |
| 2026-04-23 21:59 | 34.16825 | -118.01705 | 22202 ft | 471 kts | 52° |
| 2026-04-23 22:00 | 34.20540 | -117.95101 | 23391 ft | 480 kts | 52° |
| 2026-04-23 22:00 | 34.22435 | -117.91728 | 23928 ft | 484 kts | 52° |
| 2026-04-23 22:00 | 34.24310 | -117.88387 | 24425 ft | 488 kts | 52° |
| 2026-04-23 22:00 | 34.26226 | -117.84968 | 24918 ft | 492 kts | 52° |
| 2026-04-23 22:01 | 34.28148 | -117.81536 | 25425 ft | 495 kts | 52° |
| 2026-04-23 22:01 | 34.30081 | -117.78079 | 25922 ft | 499 kts | 53° |
| 2026-04-23 22:01 | 34.32045 | -117.74565 | 26405 ft | 502 kts | 53° |
| 2026-04-23 22:01 | 34.33992 | -117.71077 | 26902 ft | 506 kts | 53° |
| 2026-04-23 22:02 | 34.35986 | -117.67528 | 27347 ft | 510 kts | 52° |
| 2026-04-23 22:02 | 34.38054 | -117.63999 | 27787 ft | 513 kts | 51° |
| 2026-04-23 22:02 | 34.40142 | -117.60529 | 28234 ft | 517 kts | 50° |
| 2026-04-23 22:02 | 34.42278 | -117.57006 | 28667 ft | 520 kts | 50° |
| 2026-04-23 22:03 | 34.44437 | -117.53437 | 29118 ft | 524 kts | 50° |
| 2026-04-23 22:03 | 34.46575 | -117.49884 | 29501 ft | 529 kts | 50° |
| 2026-04-23 22:03 | 34.48755 | -117.46237 | 29929 ft | 531 kts | 50° |
| 2026-04-23 22:03 | 34.50898 | -117.42634 | 30412 ft | 531 kts | 50° |
| 2026-04-23 22:04 | 34.53062 | -117.38984 | 30931 ft | 529 kts | 50° |
| 2026-04-23 22:04 | 34.55183 | -117.35401 | 31441 ft | 527 kts | 51° |
| 2026-04-23 22:04 | 34.57326 | -117.31779 | 31917 ft | 526 kts | 51° |
| 2026-04-23 22:04 | 34.59471 | -117.28153 | 32360 ft | 526 kts | 51° |
| 2026-04-23 22:05 | 34.61610 | -117.24536 | 32785 ft | 525 kts | 51° |
| 2026-04-23 22:05 | 34.63714 | -117.20974 | 33201 ft | 524 kts | 51° |
| 2026-04-23 22:05 | 34.65847 | -117.17361 | 33575 ft | 523 kts | 51° |
| 2026-04-23 22:05 | 34.67945 | -117.13802 | 34010 ft | 522 kts | 51° |
| 2026-04-23 22:06 | 34.70068 | -117.10198 | 34369 ft | 522 kts | 51° |
| 2026-04-23 22:06 | 34.72185 | -117.06600 | 34682 ft | 522 kts | 51° |
| 2026-04-23 22:06 | 34.74281 | -117.03035 | 34917 ft | 524 kts | 51° |
| 2026-04-23 22:06 | 34.76415 | -116.99403 | 34964 ft | 528 kts | 51° |
| 2026-04-23 22:07 | 34.80734 | -116.92039 | 35002 ft | 535 kts | 51° |
| 2026-04-23 22:07 | 34.85035 | -116.84681 | 35016 ft | 534 kts | 51° |
| 2026-04-23 22:08 | 34.89319 | -116.77343 | 35012 ft | 533 kts | 51° |
| 2026-04-23 22:08 | 34.93816 | -116.70182 | 35008 ft | 528 kts | 43° |
| 2026-04-23 22:09 | 34.98797 | -116.63670 | 35000 ft | 526 kts | 42° |
| 2026-04-23 22:09 | 35.03836 | -116.57150 | 34991 ft | 527 kts | 42° |
| 2026-04-23 22:10 | 35.08829 | -116.50603 | 34993 ft | 528 kts | 43° |
| 2026-04-23 22:10 | 35.13800 | -116.44025 | 34988 ft | 529 kts | 43° |
| 2026-04-23 22:11 | 35.18781 | -116.37414 | 35022 ft | 529 kts | 43° |
| 2026-04-23 22:11 | 35.23785 | -116.30764 | 35002 ft | 531 kts | 43° |
| 2026-04-23 22:12 | 35.28772 | -116.24128 | 35007 ft | 532 kts | 43° |
| 2026-04-23 22:12 | 35.33809 | -116.17412 | 34997 ft | 533 kts | 43° |
| 2026-04-23 22:13 | 35.38804 | -116.10739 | 35002 ft | 533 kts | 43° |
| 2026-04-23 22:13 | 35.43815 | -116.04031 | 34999 ft | 534 kts | 43° |
| 2026-04-23 22:14 | 35.48859 | -115.97263 | 35008 ft | 534 kts | 43° |
| 2026-04-23 22:14 | 35.53845 | -115.90561 | 35018 ft | 535 kts | 43° |
| 2026-04-23 22:15 | 35.58879 | -115.83781 | 35009 ft | 534 kts | 43° |
| 2026-04-23 22:15 | 35.63845 | -115.77078 | 35013 ft | 534 kts | 43° |
| 2026-04-23 22:16 | 35.68817 | -115.70278 | 35017 ft | 534 kts | 43° |
| 2026-04-23 22:16 | 35.73781 | -115.63434 | 35022 ft | 533 kts | 43° |
| 2026-04-23 22:17 | 35.78720 | -115.56621 | 35028 ft | 533 kts | 43° |
| 2026-04-23 22:17 | 35.83638 | -115.49832 | 35057 ft | 534 kts | 43° |
| 2026-04-23 22:18 | 35.88587 | -115.42990 | 35037 ft | 535 kts | 43° |
| 2026-04-23 22:18 | 35.93534 | -115.36134 | 35032 ft | 536 kts | 43° |
| 2026-04-23 22:19 | 35.98474 | -115.29272 | 35033 ft | 537 kts | 43° |
| 2026-04-23 22:19 | 36.03459 | -115.22334 | 35002 ft | 538 kts | 44° |
| 2026-04-23 22:20 | 36.07854 | -115.14801 | 35013 ft | 546 kts | 56° |
| 2026-04-23 22:20 | 36.11137 | -115.06257 | 34997 ft | 552 kts | 67° |
| 2026-04-23 22:21 | 36.13744 | -114.97366 | 34974 ft | 553 kts | 68° |
| 2026-04-23 22:21 | 36.16423 | -114.88408 | 34949 ft | 553 kts | 67° |
| 2026-04-23 22:22 | 36.19142 | -114.79518 | 34956 ft | 554 kts | 66° |
| 2026-04-23 22:22 | 36.21875 | -114.70619 | 34929 ft | 554 kts | 66° |
| 2026-04-23 22:23 | 36.24619 | -114.61667 | 34898 ft | 555 kts | 67° |
| 2026-04-23 22:23 | 36.27339 | -114.52756 | 34906 ft | 554 kts | 67° |
| 2026-04-23 22:24 | 36.30068 | -114.43780 | 34909 ft | 555 kts | 66° |
| 2026-04-23 22:24 | 36.32769 | -114.34866 | 34921 ft | 556 kts | 66° |
| 2026-04-23 22:25 | 36.35489 | -114.25862 | 34918 ft | 557 kts | 67° |
| 2026-04-23 22:25 | 36.38208 | -114.16834 | 34909 ft | 558 kts | 67° |
| 2026-04-23 22:26 | 36.40912 | -114.07824 | 34909 ft | 559 kts | 67° |
| 2026-04-23 22:26 | 36.43613 | -113.98799 | 34922 ft | 559 kts | 67° |
| 2026-04-23 22:27 | 36.46322 | -113.89717 | 34922 ft | 560 kts | 67° |
| 2026-04-23 22:27 | 36.49027 | -113.80618 | 34941 ft | 560 kts | 67° |
| 2026-04-23 22:28 | 36.51707 | -113.71573 | 34938 ft | 561 kts | 67° |
| 2026-04-23 22:28 | 36.54411 | -113.62420 | 34931 ft | 562 kts | 67° |
| 2026-04-23 22:29 | 36.57092 | -113.53310 | 34932 ft | 562 kts | 67° |
| 2026-04-23 22:29 | 36.59779 | -113.44149 | 34930 ft | 562 kts | 67° |
| 2026-04-23 22:30 | 36.62452 | -113.35013 | 34934 ft | 563 kts | 67° |
| 2026-04-23 22:30 | 36.65109 | -113.25859 | 35169 ft | 557 kts | 67° |
| 2026-04-23 22:31 | 36.67725 | -113.16786 | 35111 ft | 563 kts | 67° |
| 2026-04-23 22:31 | 36.69067 | -113.12163 | 35009 ft | 567 kts | 67° |
| 2026-04-23 22:31 | 36.70407 | -113.07583 | 34893 ft | 570 kts | 67° |
| 2026-04-23 22:32 | 36.73161 | -112.98287 | 34912 ft | 568 kts | 66° |
| 2026-04-23 22:32 | 36.74495 | -112.93655 | 35018 ft | 566 kts | 70° |
| 2026-04-23 22:32 | 36.75569 | -112.88999 | 35053 ft | 561 kts | 69° |
| 2026-04-23 22:33 | 36.78527 | -112.79977 | 34991 ft | 560 kts | 64° |
| 2026-04-23 22:33 | 36.81113 | -112.70780 | 34960 ft | 565 kts | 70° |
| 2026-04-23 22:34 | 36.83520 | -112.61400 | 34930 ft | 567 kts | 69° |
| 2026-04-23 22:34 | 36.86096 | -112.52140 | 34920 ft | 569 kts | 67° |
| 2026-04-23 22:35 | 36.88752 | -112.42769 | 34925 ft | 571 kts | 68° |
| 2026-04-23 22:35 | 36.91374 | -112.33417 | 34914 ft | 572 kts | 68° |
| 2026-04-23 22:36 | 36.94005 | -112.24027 | 34902 ft | 573 kts | 68° |
| 2026-04-23 22:36 | 36.96641 | -112.14592 | 34888 ft | 573 kts | 68° |
| 2026-04-23 22:37 | 36.99255 | -112.05203 | 34863 ft | 573 kts | 68° |
| 2026-04-23 22:37 | 37.01862 | -111.95802 | 34869 ft | 573 kts | 68° |
| 2026-04-23 22:38 | 37.04033 | -111.87947 | 34857 ft | 572 kts | 68° |
| 2026-04-23 22:38 | 37.06640 | -111.78485 | 34852 ft | 573 kts | 68° |
| 2026-04-23 22:39 | 37.09218 | -111.69095 | 34854 ft | 572 kts | 68° |
| 2026-04-23 22:39 | 37.11787 | -111.59704 | 34857 ft | 571 kts | 68° |
| 2026-04-23 22:40 | 37.14365 | -111.50246 | 34912 ft | 571 kts | 68° |
| 2026-04-23 22:41 | 37.18182 | -111.36179 | 34888 ft | 570 kts | 68° |
| 2026-04-23 22:41 | 37.20736 | -111.26724 | 34888 ft | 569 kts | 68° |
| 2026-04-23 22:42 | 37.23686 | -111.17554 | 34871 ft | 564 kts | 59° |
| 2026-04-23 22:42 | 37.27227 | -111.08804 | 34879 ft | 564 kts | 58° |
| 2026-04-23 22:43 | 37.30807 | -111.00016 | 34885 ft | 565 kts | 58° |
| 2026-04-23 22:43 | 37.34329 | -110.91204 | 34875 ft | 566 kts | 59° |
| 2026-04-23 22:44 | 37.37824 | -110.82351 | 34882 ft | 567 kts | 59° |
| 2026-04-23 22:44 | 37.41338 | -110.73418 | 34887 ft | 569 kts | 59° |
| 2026-04-23 22:45 | 37.44836 | -110.64516 | 34883 ft | 569 kts | 59° |
| 2026-04-23 22:45 | 37.48337 | -110.55586 | 34889 ft | 570 kts | 59° |
| 2026-04-23 22:46 | 37.51859 | -110.46577 | 34911 ft | 571 kts | 59° |
| 2026-04-23 22:46 | 37.55358 | -110.37596 | 34941 ft | 572 kts | 59° |
| 2026-04-23 22:47 | 37.58837 | -110.28649 | 34912 ft | 571 kts | 59° |
| 2026-04-23 22:47 | 37.62337 | -110.19614 | 34911 ft | 572 kts | 59° |
| 2026-04-23 22:48 | 37.65829 | -110.10575 | 34924 ft | 572 kts | 59° |
| 2026-04-23 22:48 | 37.69307 | -110.01547 | 34923 ft | 572 kts | 59° |
| 2026-04-23 22:49 | 37.72752 | -109.92580 | 34915 ft | 572 kts | 59° |
| 2026-04-23 22:49 | 37.76224 | -109.83516 | 34920 ft | 572 kts | 59° |
| 2026-04-23 22:50 | 37.79693 | -109.74433 | 34931 ft | 572 kts | 59° |
| 2026-04-23 22:50 | 37.83123 | -109.65423 | 34951 ft | 571 kts | 59° |
| 2026-04-23 22:51 | 37.86556 | -109.56382 | 34954 ft | 571 kts | 59° |
| 2026-04-23 22:51 | 37.89987 | -109.47319 | 34933 ft | 572 kts | 59° |
| 2026-04-23 22:52 | 37.93426 | -109.38208 | 34920 ft | 572 kts | 59° |
| 2026-04-23 22:52 | 37.96848 | -109.29113 | 34965 ft | 572 kts | 60° |
| 2026-04-23 22:53 | 38.00257 | -109.20026 | 34931 ft | 571 kts | 60° |
| 2026-04-23 22:53 | 38.03674 | -109.10889 | 34939 ft | 571 kts | 60° |
| 2026-04-23 22:54 | 38.07052 | -109.01830 | 34918 ft | 571 kts | 60° |
| 2026-04-23 22:54 | 38.10428 | -108.92762 | 34913 ft | 570 kts | 59° |
| 2026-04-23 22:55 | 38.13929 | -108.83755 | 34884 ft | 569 kts | 58° |
| 2026-04-23 22:55 | 38.17509 | -108.74765 | 34914 ft | 569 kts | 58° |
| 2026-04-23 22:56 | 38.21071 | -108.65744 | 34878 ft | 569 kts | 58° |
| 2026-04-23 22:56 | 38.24579 | -108.56762 | 34902 ft | 569 kts | 59° |
| 2026-04-23 22:57 | 38.28105 | -108.47696 | 34897 ft | 570 kts | 59° |
| 2026-04-23 22:57 | 38.31613 | -108.38656 | 34902 ft | 571 kts | 59° |
| 2026-04-23 22:58 | 38.35116 | -108.29607 | 34913 ft | 571 kts | 59° |
| 2026-04-23 22:58 | 38.38615 | -108.20538 | 34915 ft | 571 kts | 59° |
| 2026-04-23 22:59 | 38.42115 | -108.11440 | 34939 ft | 568 kts | 59° |
| 2026-04-23 22:59 | 38.45567 | -108.02443 | 34977 ft | 566 kts | 59° |
| 2026-04-23 23:00 | 38.49004 | -107.93411 | 34983 ft | 565 kts | 59° |
| 2026-04-23 23:00 | 38.52394 | -107.84413 | 34994 ft | 564 kts | 59° |
| 2026-04-23 23:00 | 38.54101 | -107.79876 | 34870 ft | 565 kts | 59° |
| 2026-04-23 23:01 | 38.55786 | -107.75392 | 34867 ft | 565 kts | 59° |
| 2026-04-23 23:01 | 38.59198 | -107.66300 | 34868 ft | 566 kts | 59° |
| 2026-04-23 23:02 | 38.62586 | -107.57249 | 34854 ft | 566 kts | 60° |
| 2026-04-23 23:02 | 38.65994 | -107.48116 | 34871 ft | 567 kts | 59° |
| 2026-04-23 23:03 | 38.69418 | -107.39052 | 34872 ft | 567 kts | 59° |
| 2026-04-23 23:03 | 38.72856 | -107.29996 | 34874 ft | 567 kts | 59° |
| 2026-04-23 23:04 | 38.76289 | -107.20901 | 34879 ft | 563 kts | 60° |
| 2026-04-23 23:04 | 38.79657 | -107.11932 | 34868 ft | 559 kts | 60° |
| 2026-04-23 23:05 | 38.83010 | -107.02977 | 34878 ft | 555 kts | 60° |
| 2026-04-23 23:05 | 38.84664 | -106.98544 | 34843 ft | 542 kts | 60° |
| 2026-04-23 23:05 | 38.86269 | -106.94228 | 34841 ft | 527 kts | 60° |
| 2026-04-23 23:05 | 38.87820 | -106.90059 | 34639 ft | 519 kts | 59° |
| 2026-04-23 23:06 | 38.89377 | -106.85878 | 34257 ft | 515 kts | 59° |
| 2026-04-23 23:06 | 38.90918 | -106.81739 | 33855 ft | 512 kts | 59° |
| 2026-04-23 23:06 | 38.92433 | -106.77664 | 33367 ft | 509 kts | 59° |
| 2026-04-23 23:06 | 38.93952 | -106.73570 | 32938 ft | 504 kts | 59° |
| 2026-04-23 23:07 | 38.95457 | -106.69505 | 32479 ft | 500 kts | 60° |
| 2026-04-23 23:07 | 38.96945 | -106.65478 | 32048 ft | 495 kts | 60° |
| 2026-04-23 23:07 | 38.98418 | -106.61488 | 31621 ft | 491 kts | 60° |
| 2026-04-23 23:07 | 38.99864 | -106.57566 | 31215 ft | 487 kts | 60° |
| 2026-04-23 23:08 | 39.01303 | -106.53648 | 30778 ft | 477 kts | 60° |
| 2026-04-23 23:08 | 39.02698 | -106.49827 | 30368 ft | 463 kts | 60° |
| 2026-04-23 23:08 | 39.04031 | -106.46171 | 29972 ft | 450 kts | 60° |
| 2026-04-23 23:08 | 39.05347 | -106.42559 | 29501 ft | 437 kts | 60° |
| 2026-04-23 23:09 | 39.06635 | -106.39031 | 29125 ft | 432 kts | 60° |
| 2026-04-23 23:09 | 39.07900 | -106.35569 | 28716 ft | 428 kts | 60° |
| 2026-04-23 23:09 | 39.09164 | -106.32103 | 28325 ft | 424 kts | 60° |
| 2026-04-23 23:09 | 39.10402 | -106.28699 | 27942 ft | 420 kts | 60° |
| 2026-04-23 23:10 | 39.11635 | -106.25304 | 27518 ft | 417 kts | 60° |
| 2026-04-23 23:10 | 39.12849 | -106.21961 | 27109 ft | 414 kts | 60° |
| 2026-04-23 23:10 | 39.14068 | -106.18600 | 26680 ft | 411 kts | 60° |
| 2026-04-23 23:10 | 39.15276 | -106.15262 | 26269 ft | 408 kts | 60° |
| 2026-04-23 23:11 | 39.16456 | -106.11990 | 25860 ft | 404 kts | 60° |
| 2026-04-23 23:11 | 39.17641 | -106.08694 | 25474 ft | 401 kts | 60° |
| 2026-04-23 23:11 | 39.18812 | -106.05433 | 25054 ft | 398 kts | 60° |
| 2026-04-23 23:11 | 39.19961 | -106.02229 | 24666 ft | 395 kts | 60° |
| 2026-04-23 23:12 | 39.21119 | -105.98999 | 24265 ft | 393 kts | 60° |
| 2026-04-23 23:12 | 39.22249 | -105.95849 | 23874 ft | 391 kts | 61° |
| 2026-04-23 23:12 | 39.23392 | -105.92658 | 23410 ft | 389 kts | 62° |
| 2026-04-23 23:12 | 39.24528 | -105.89487 | 22971 ft | 387 kts | 61° |
| 2026-04-23 23:13 | 39.25665 | -105.86333 | 22546 ft | 384 kts | 61° |
| 2026-04-23 23:13 | 39.26775 | -105.83256 | 22154 ft | 382 kts | 61° |
| 2026-04-23 23:13 | 39.27891 | -105.80158 | 21794 ft | 378 kts | 62° |
| 2026-04-23 23:13 | 39.28999 | -105.77078 | 21393 ft | 375 kts | 61° |
| 2026-04-23 23:14 | 39.30090 | -105.74041 | 21025 ft | 372 kts | 61° |
| 2026-04-23 23:14 | 39.31168 | -105.71039 | 20657 ft | 369 kts | 62° |
| 2026-04-23 23:14 | 39.32241 | -105.68044 | 20321 ft | 367 kts | 61° |
| 2026-04-23 23:14 | 39.33317 | -105.65066 | 19968 ft | 367 kts | 61° |
| 2026-04-23 23:15 | 39.34419 | -105.62054 | 19583 ft | 369 kts | 62° |
| 2026-04-23 23:15 | 39.35520 | -105.59049 | 19217 ft | 368 kts | 63° |
| 2026-04-23 23:15 | 39.36605 | -105.56082 | 18841 ft | 368 kts | 63° |
| 2026-04-23 23:15 | 39.37698 | -105.53085 | 18471 ft | 368 kts | 63° |
| 2026-04-23 23:16 | 39.38789 | -105.50086 | 18095 ft | 370 kts | 63° |
| 2026-04-23 23:16 | 39.39875 | -105.47098 | 17680 ft | 370 kts | 63° |
| 2026-04-23 23:16 | 39.40961 | -105.44104 | 17531 ft | 362 kts | 64° |
| 2026-04-23 23:16 | 39.41754 | -105.41066 | 17256 ft | 354 kts | 83° |
| 2026-04-23 23:17 | 39.41795 | -105.37926 | 17032 ft | 342 kts | 91° |
| 2026-04-23 23:17 | 39.41766 | -105.34872 | 16707 ft | 345 kts | 90° |
| 2026-04-23 23:17 | 39.41761 | -105.31753 | 16349 ft | 346 kts | 89° |
| 2026-04-23 23:17 | 39.41766 | -105.28679 | 16020 ft | 346 kts | 89° |
| 2026-04-23 23:18 | 39.41777 | -105.25557 | 15660 ft | 344 kts | 89° |
| 2026-04-23 23:18 | 39.41789 | -105.22474 | 15325 ft | 340 kts | 89° |
| 2026-04-23 23:18 | 39.41802 | -105.19463 | 14978 ft | 336 kts | 89° |
| 2026-04-23 23:18 | 39.41816 | -105.16443 | 14645 ft | 333 kts | 89° |
| 2026-04-23 23:19 | 39.41828 | -105.13475 | 14304 ft | 330 kts | 89° |
| 2026-04-23 23:19 | 39.41840 | -105.10552 | 13980 ft | 327 kts | 89° |
| 2026-04-23 23:19 | 39.41852 | -105.07622 | 13702 ft | 321 kts | 89° |
| 2026-04-23 23:19 | 39.41862 | -105.04770 | 13567 ft | 310 kts | 89° |
| 2026-04-23 23:20 | 39.41872 | -105.02040 | 13400 ft | 300 kts | 89° |
| 2026-04-23 23:20 | 39.41880 | -104.99385 | 13347 ft | 287 kts | 89° |
| 2026-04-23 23:20 | 39.41887 | -104.96841 | 13190 ft | 278 kts | 89° |
| 2026-04-23 23:20 | 39.41896 | -104.94350 | 12913 ft | 280 kts | 87° |
| 2026-04-23 23:21 | 39.42047 | -104.91842 | 12663 ft | 277 kts | 81° |
| 2026-04-23 23:21 | 39.42288 | -104.89395 | 12393 ft | 272 kts | 80° |
| 2026-04-23 23:21 | 39.42521 | -104.86984 | 12119 ft | 266 kts | 80° |
| 2026-04-23 23:21 | 39.42744 | -104.84634 | 11865 ft | 261 kts | 79° |
| 2026-04-23 23:22 | 39.42956 | -104.82339 | 11629 ft | 258 kts | 80° |
| 2026-04-23 23:22 | 39.43163 | -104.80024 | 11372 ft | 258 kts | 79° |
| 2026-04-23 23:22 | 39.43370 | -104.77694 | 11149 ft | 261 kts | 79° |
| 2026-04-23 23:22 | 39.43670 | -104.75424 | 11016 ft | 254 kts | 68° |
| 2026-04-23 23:23 | 39.44299 | -104.73307 | 10999 ft | 251 kts | 62° |
| 2026-04-23 23:23 | 39.44982 | -104.71249 | 10996 ft | 252 kts | 60° |
| 2026-04-23 23:23 | 39.45989 | -104.69456 | 10971 ft | 244 kts | 32° |
| 2026-04-23 23:23 | 39.47469 | -104.68435 | 10978 ft | 241 kts | 14° |
| 2026-04-23 23:24 | 39.49081 | -104.67843 | 11005 ft | 242 kts | 11° |
| 2026-04-23 23:24 | 39.50707 | -104.67306 | 10997 ft | 243 kts | 11° |
| 2026-04-23 23:24 | 39.52337 | -104.66760 | 10973 ft | 240 kts | 11° |
| 2026-04-23 23:24 | 39.53934 | -104.66417 | 10976 ft | 233 kts | 1° |
| 2026-04-23 23:25 | 39.55603 | -104.66353 | 10665 ft | 242 kts | 357° |
| 2026-04-23 23:25 | 39.56727 | -104.66349 | 10498 ft | 244 kts | 357° |
| 2026-04-23 23:25 | 39.58968 | -104.66336 | 10062 ft | 239 kts | 358° |
| 2026-04-23 23:25 | 39.60617 | -104.66318 | 9807 ft | 232 kts | 358° |
| 2026-04-23 23:26 | 39.61677 | -104.66306 | 9594 ft | 229 kts | 358° |
| 2026-04-23 23:26 | 39.63767 | -104.66281 | 9160 ft | 221 kts | 358° |
| 2026-04-23 23:26 | 39.64785 | -104.66269 | 8956 ft | 217 kts | 358° |
| 2026-04-23 23:26 | 39.66280 | -104.66252 | 8653 ft | 211 kts | 359° |
| 2026-04-23 23:27 | 39.67727 | -104.66234 | 8383 ft | 208 kts | 358° |
| 2026-04-23 23:27 | 39.69169 | -104.66217 | 8107 ft | 205 kts | 359° |
| 2026-04-23 23:27 | 39.70560 | -104.66201 | 7836 ft | 198 kts | 358° |
| 2026-04-23 23:27 | 39.71944 | -104.66185 | 7595 ft | 199 kts | 358° |
| 2026-04-23 23:28 | 39.73358 | -104.66169 | 7345 ft | 205 kts | 359° |
| 2026-04-23 23:28 | 39.74757 | -104.66151 | 7060 ft | 199 kts | 359° |
| 2026-04-23 23:28 | 39.76103 | -104.66135 | 6842 ft | 184 kts | 359° |
| 2026-04-23 23:28 | 39.77351 | -104.66120 | 6600 ft | 170 kts | 359° |
| 2026-04-23 23:29 | 39.78501 | -104.66103 | 6403 ft | 165 kts | 359° |
| 2026-04-23 23:29 | 39.79650 | -104.66100 | 6152 ft | 166 kts | 357° |
| 2026-04-23 23:29 | 39.80815 | -104.66087 | 5931 ft | 169 kts | 357° |
| 2026-04-23 23:29 | 39.82000 | -104.66058 | 5697 ft | 167 kts | 353° |
| 2026-04-23 23:30 | 39.83126 | -104.66057 | 5459 ft | 157 kts | 355° |
| 2026-04-23 23:30 | 39.84109 | -104.66046 | 5418 ft | 117 kts | 358° |
| 2026-04-23 23:30 | 39.84739 | -104.66041 | 5399 ft | 64 kts | 359° |
| 2026-04-23 23:30 | 39.85024 | -104.66042 | 5397 ft | 30 kts | 0° |
| 2026-04-23 23:31 | 39.85216 | -104.66100 | 5394 ft | 22 kts | 335° |
| 2026-04-23 23:31 | 39.85286 | -104.66206 | 5390 ft | 17 kts | 245° |
| 2026-04-23 23:31 | 39.85178 | -104.66243 | 5398 ft | 17 kts | 180° |
| 2026-04-23 23:31 | 39.85063 | -104.66244 | 5400 ft | 17 kts | 180° |
| 2026-04-23 23:32 | 39.84947 | -104.66245 | 5402 ft | 17 kts | 181° |
| 2026-04-23 23:32 | 39.84831 | -104.66248 | 5399 ft | 17 kts | 181° |
| 2026-04-23 23:32 | 39.84715 | -104.66248 | 5410 ft | 17 kts | 180° |
| 2026-04-23 23:32 | 39.84599 | -104.66251 | 5401 ft | 17 kts | 181° |
| 2026-04-23 23:33 | 39.84484 | -104.66252 | 5412 ft | 17 kts | 180° |
| 2026-04-23 23:33 | 39.84368 | -104.66254 | 5408 ft | 17 kts | 181° |
| 2026-04-23 23:33 | 39.84251 | -104.66254 | 5417 ft | 17 kts | 180° |
| 2026-04-23 23:33 | 39.84135 | -104.66255 | 5417 ft | 17 kts | 180° |
| 2026-04-23 23:34 | 39.84020 | -104.66256 | 5415 ft | 17 kts | 181° |
| 2026-04-23 23:34 | 39.83904 | -104.66258 | 5419 ft | 17 kts | 181° |
| 2026-04-23 23:34 | 39.83788 | -104.66259 | 5418 ft | 17 kts | 180° |
| 2026-04-23 23:34 | 39.83671 | -104.66261 | 5420 ft | 17 kts | 180° |
| 2026-04-23 23:35 | 39.83557 | -104.66263 | 5430 ft | 17 kts | 180° |
| 2026-04-23 23:35 | 39.83441 | -104.66264 | 5435 ft | 17 kts | 181° |
| 2026-04-23 23:35 | 39.83326 | -104.66265 | 5436 ft | 17 kts | 180° |
| 2026-04-23 23:35 | 39.83210 | -104.66265 | 5441 ft | 17 kts | 180° |
| 2026-04-23 23:36 | 39.83094 | -104.66267 | 5446 ft | 17 kts | 180° |
| 2026-04-23 23:36 | 39.82977 | -104.66269 | 5447 ft | 17 kts | 186° |
| 2026-04-23 23:36 | 39.82934 | -104.66383 | 5443 ft | 8 kts | 267° |
| 2026-04-23 23:36 | 39.82930 | -104.66509 | 5417 ft | 16 kts | 270° |
| 2026-04-23 23:37 | 39.82931 | -104.66667 | 5415 ft | 18 kts | 270° |
| 2026-04-23 23:37 | 39.82933 | -104.66834 | 5411 ft | 19 kts | 270° |
| 2026-04-23 23:37 | 39.82934 | -104.67013 | 5414 ft | 20 kts | 270° |
| 2026-04-23 23:37 | 39.82953 | -104.67160 | 5400 ft | 11 kts | 288° |
| 2026-04-23 23:38 | 39.82989 | -104.67288 | 5392 ft | 18 kts | 290° |
| 2026-04-23 23:38 | 39.83025 | -104.67340 | 5389 ft | 7 kts | 345° |
| 2026-04-23 23:38 | 39.83077 | -104.67344 | 5389 ft | 7 kts | 359° |
| 2026-04-23 23:38 | 39.83087 | -104.67344 | 5390 ft | 0 kts | 359° |
| 2026-04-23 23:39 | 39.83090 | -104.67344 | 5389 ft | 1 kts | 0° |
| 2026-04-23 23:39 | 39.83094 | -104.67344 | 5395 ft | 1 kts | 0° |
| 2026-04-23 23:39 | 39.83098 | -104.67344 | 5386 ft | 1 kts | 0° |